sensor_id;sensor_type;location;lat;lon;timestamp;temperature;humidity
22235;DHT22;11286;45.596;5.284;2022-10-31T00:01:56;16.40;99.90
22235;DHT22;11286;45.596;5.284;2022-10-31T00:04:22;16.40;99.90
22235;DHT22;11286;45.596;5.284;2022-10-31T00:06:47;16.50;99.90
22235;DHT22;11286;45.596;5.284;2022-10-31T00:09:13;16.40;99.90
22235;DHT22;11286;45.596;5.284;2022-10-31T00:11:39;16.50;99.90
22235;DHT22;11286;45.596;5.284;2022-10-31T00:14:05;16.60;99.90
22235;DHT22;11286;45.596;5.284;2022-10-31T00:16:30;16.60;99.90
22235;DHT22;11286;45.596;5.284;2022-10-31T00:18:59;16.70;99.90
22235;DHT22;11286;45.596;5.284;2022-10-31T00:21:25;16.70;99.90
22235;DHT22;11286;45.596;5.284;2022-10-31T00:23:51;16.70;99.90
22235;DHT22;11286;45.596;5.284;2022-10-31T00:26:17;16.70;99.90
22235;DHT22;11286;45.596;5.284;2022-10-31T00:28:43;16.50;99.90
22235;DHT22;11286;45.596;5.284;2022-10-31T00:31:10;16.50;99.90
22235;DHT22;11286;45.596;5.284;2022-10-31T00:33:37;16.50;99.90
22235;DHT22;11286;45.596;5.284;2022-10-31T00:36:04;16.60;99.90
22235;DHT22;11286;45.596;5.284;2022-10-31T00:38:30;16.70;99.90
22235;DHT22;11286;45.596;5.284;2022-10-31T00:40:55;16.80;99.90
22235;DHT22;11286;45.596;5.284;2022-10-31T00:43:21;16.80;99.90
22235;DHT22;11286;45.596;5.284;2022-10-31T00:45:47;16.90;99.90
22235;DHT22;11286;45.596;5.284;2022-10-31T00:48:13;16.90;99.90
22235;DHT22;11286;45.596;5.284;2022-10-31T00:50:38;16.90;99.90
22235;DHT22;11286;45.596;5.284;2022-10-31T00:53:04;16.90;99.90
22235;DHT22;11286;45.596;5.284;2022-10-31T00:55:30;17.00;99.90
22235;DHT22;11286;45.596;5.284;2022-10-31T00:57:55;16.80;99.90
22235;DHT22;11286;45.596;5.284;2022-10-31T01:00:21;16.80;99.90
22235;DHT22;11286;45.596;5.284;2022-10-31T01:02:48;16.80;99.90
22235;DHT22;11286;45.596;5.284;2022-10-31T01:05:14;16.80;99.90
22235;DHT22;11286;45.596;5.284;2022-10-31T01:07:40;16.80;99.90
22235;DHT22;11286;45.596;5.284;2022-10-31T01:10:07;16.80;99.90
22235;DHT22;11286;45.596;5.284;2022-10-31T01:12:44;16.90;99.90
22235;DHT22;11286;45.596;5.284;2022-10-31T01:15:12;17.00;99.90
22235;DHT22;11286;45.596;5.284;2022-10-31T01:17:38;17.00;99.90
22235;DHT22;11286;45.596;5.284;2022-10-31T01:20:06;17.00;99.90
22235;DHT22;11286;45.596;5.284;2022-10-31T01:22:32;17.00;99.90
22235;DHT22;11286;45.596;5.284;2022-10-31T01:24:58;17.10;99.90
22235;DHT22;11286;45.596;5.284;2022-10-31T01:27:24;17.10;99.90
22235;DHT22;11286;45.596;5.284;2022-10-31T01:29:49;17.00;99.90
22235;DHT22;11286;45.596;5.284;2022-10-31T01:32:15;17.00;99.90
22235;DHT22;11286;45.596;5.284;2022-10-31T01:34:41;17.00;99.90
22235;DHT22;11286;45.596;5.284;2022-10-31T01:37:06;17.00;99.90
22235;DHT22;11286;45.596;5.284;2022-10-31T01:39:32;17.00;99.90
22235;DHT22;11286;45.596;5.284;2022-10-31T01:41:58;16.90;99.90
22235;DHT22;11286;45.596;5.284;2022-10-31T01:47:12;17.00;99.90
22235;DHT22;11286;45.596;5.284;2022-10-31T01:49:54;16.90;99.90
22235;DHT22;11286;45.596;5.284;2022-10-31T01:55:23;17.00;99.90
22235;DHT22;11286;45.596;5.284;2022-10-31T01:57:52;17.00;99.90
22235;DHT22;11286;45.596;5.284;2022-10-31T02:00:20;17.00;99.90
22235;DHT22;11286;45.596;5.284;2022-10-31T02:02:46;17.00;99.90
22235;DHT22;11286;45.596;5.284;2022-10-31T02:05:16;17.00;99.90
22235;DHT22;11286;45.596;5.284;2022-10-31T02:10:15;17.00;99.90
22235;DHT22;11286;45.596;5.284;2022-10-31T02:12:41;16.90;99.90
22235;DHT22;11286;45.596;5.284;2022-10-31T02:15:07;16.90;99.90
22235;DHT22;11286;45.596;5.284;2022-10-31T02:17:34;16.90;99.90
22235;DHT22;11286;45.596;5.284;2022-10-31T02:20:13;16.90;99.90
22235;DHT22;11286;45.596;5.284;2022-10-31T02:23:02;16.90;99.90
22235;DHT22;11286;45.596;5.284;2022-10-31T02:34:08;16.90;99.90
22235;DHT22;11286;45.596;5.284;2022-10-31T02:36:47;16.90;99.90
22235;DHT22;11286;45.596;5.284;2022-10-31T02:39:27;16.90;99.90
22235;DHT22;11286;45.596;5.284;2022-10-31T02:42:13;16.90;99.90
22235;DHT22;11286;45.596;5.284;2022-10-31T02:44:57;16.90;99.90
22235;DHT22;11286;45.596;5.284;2022-10-31T02:47:27;16.80;99.90
22235;DHT22;11286;45.596;5.284;2022-10-31T02:52:52;16.90;99.90
22235;DHT22;11286;45.596;5.284;2022-10-31T02:58:14;16.90;99.90
22235;DHT22;11286;45.596;5.284;2022-10-31T03:06:45;16.90;99.90
22235;DHT22;11286;45.596;5.284;2022-10-31T03:12:07;16.90;99.90
22235;DHT22;11286;45.596;5.284;2022-10-31T03:14:38;16.90;99.90
22235;DHT22;11286;45.596;5.284;2022-10-31T03:17:08;16.90;99.90
22235;DHT22;11286;45.596;5.284;2022-10-31T03:19:41;16.80;99.90
22235;DHT22;11286;45.596;5.284;2022-10-31T03:22:16;16.60;99.90
22235;DHT22;11286;45.596;5.284;2022-10-31T03:24:43;16.20;99.90
22235;DHT22;11286;45.596;5.284;2022-10-31T03:27:12;16.10;99.90
22235;DHT22;11286;45.596;5.284;2022-10-31T03:29:40;16.10;99.90
22235;DHT22;11286;45.596;5.284;2022-10-31T03:32:37;16.30;99.90
22235;DHT22;11286;45.596;5.284;2022-10-31T03:35:05;16.40;99.90
22235;DHT22;11286;45.596;5.284;2022-10-31T03:37:34;16.40;99.90
22235;DHT22;11286;45.596;5.284;2022-10-31T03:40:02;16.50;99.90
22235;DHT22;11286;45.596;5.284;2022-10-31T03:42:31;16.50;99.90
22235;DHT22;11286;45.596;5.284;2022-10-31T03:45:11;16.50;99.90
22235;DHT22;11286;45.596;5.284;2022-10-31T03:47:38;16.50;99.90
22235;DHT22;11286;45.596;5.284;2022-10-31T03:50:08;16.50;99.90
22235;DHT22;11286;45.596;5.284;2022-10-31T03:52:42;16.60;99.90
22235;DHT22;11286;45.596;5.284;2022-10-31T03:55:17;16.80;99.90
22235;DHT22;11286;45.596;5.284;2022-10-31T03:57:59;16.70;99.90
22235;DHT22;11286;45.596;5.284;2022-10-31T04:00:27;16.90;99.90
22235;DHT22;11286;45.596;5.284;2022-10-31T04:03:14;16.90;99.90
22235;DHT22;11286;45.596;5.284;2022-10-31T04:05:43;17.00;99.90
22235;DHT22;11286;45.596;5.284;2022-10-31T04:08:14;17.10;99.90
22235;DHT22;11286;45.596;5.284;2022-10-31T04:10:42;17.10;99.90
22235;DHT22;11286;45.596;5.284;2022-10-31T04:13:15;17.10;99.90
22235;DHT22;11286;45.596;5.284;2022-10-31T04:15:42;17.00;99.90
22235;DHT22;11286;45.596;5.284;2022-10-31T04:18:08;16.90;99.90
22235;DHT22;11286;45.596;5.284;2022-10-31T04:20:36;16.80;99.90
22235;DHT22;11286;45.596;5.284;2022-10-31T04:23:05;16.70;99.90
22235;DHT22;11286;45.596;5.284;2022-10-31T04:25:30;16.70;99.90
22235;DHT22;11286;45.596;5.284;2022-10-31T04:27:56;16.70;99.90
22235;DHT22;11286;45.596;5.284;2022-10-31T04:30:22;16.70;99.90
22235;DHT22;11286;45.596;5.284;2022-10-31T04:32:47;16.80;99.90
22235;DHT22;11286;45.596;5.284;2022-10-31T04:35:13;16.80;99.90
22235;DHT22;11286;45.596;5.284;2022-10-31T04:37:39;16.70;99.90
22235;DHT22;11286;45.596;5.284;2022-10-31T04:40:05;16.70;99.90
22235;DHT22;11286;45.596;5.284;2022-10-31T04:42:31;16.80;99.90
22235;DHT22;11286;45.596;5.284;2022-10-31T04:44:56;16.90;99.90
22235;DHT22;11286;45.596;5.284;2022-10-31T04:47:22;16.90;99.90
22235;DHT22;11286;45.596;5.284;2022-10-31T04:49:48;16.70;99.90
22235;DHT22;11286;45.596;5.284;2022-10-31T04:52:13;16.50;99.90
22235;DHT22;11286;45.596;5.284;2022-10-31T04:54:39;16.50;99.90
22235;DHT22;11286;45.596;5.284;2022-10-31T04:57:05;16.50;99.90
22235;DHT22;11286;45.596;5.284;2022-10-31T04:59:30;16.30;99.90
22235;DHT22;11286;45.596;5.284;2022-10-31T05:01:56;16.20;99.90
22235;DHT22;11286;45.596;5.284;2022-10-31T05:04:21;16.20;99.90
22235;DHT22;11286;45.596;5.284;2022-10-31T05:06:47;16.30;99.90
22235;DHT22;11286;45.596;5.284;2022-10-31T05:09:13;16.30;99.90
22235;DHT22;11286;45.596;5.284;2022-10-31T05:11:38;16.30;99.90
22235;DHT22;11286;45.596;5.284;2022-10-31T05:14:04;16.40;99.90
22235;DHT22;11286;45.596;5.284;2022-10-31T05:16:30;16.50;99.90
22235;DHT22;11286;45.596;5.284;2022-10-31T05:18:55;16.50;99.90
22235;DHT22;11286;45.596;5.284;2022-10-31T05:21:21;16.50;99.90
22235;DHT22;11286;45.596;5.284;2022-10-31T05:23:46;16.40;99.90
22235;DHT22;11286;45.596;5.284;2022-10-31T05:26:12;16.40;99.90
22235;DHT22;11286;45.596;5.284;2022-10-31T05:28:37;16.50;99.90
22235;DHT22;11286;45.596;5.284;2022-10-31T05:31:03;16.60;99.90
22235;DHT22;11286;45.596;5.284;2022-10-31T05:33:29;16.70;99.90
22235;DHT22;11286;45.596;5.284;2022-10-31T05:35:55;16.70;99.90
22235;DHT22;11286;45.596;5.284;2022-10-31T05:38:20;16.70;99.90
22235;DHT22;11286;45.596;5.284;2022-10-31T05:40:46;16.70;99.90
22235;DHT22;11286;45.596;5.284;2022-10-31T05:43:11;16.70;99.90
22235;DHT22;11286;45.596;5.284;2022-10-31T05:45:37;16.60;99.90
22235;DHT22;11286;45.596;5.284;2022-10-31T05:48:03;16.60;99.90
22235;DHT22;11286;45.596;5.284;2022-10-31T05:50:30;16.60;99.90
22235;DHT22;11286;45.596;5.284;2022-10-31T05:53:01;16.60;99.90
22235;DHT22;11286;45.596;5.284;2022-10-31T05:55:28;16.60;99.90
22235;DHT22;11286;45.596;5.284;2022-10-31T05:57:54;16.70;99.90
22235;DHT22;11286;45.596;5.284;2022-10-31T06:00:21;16.80;99.90
22235;DHT22;11286;45.596;5.284;2022-10-31T06:02:47;16.80;99.90
22235;DHT22;11286;45.596;5.284;2022-10-31T06:05:13;16.80;99.90
22235;DHT22;11286;45.596;5.284;2022-10-31T06:07:39;16.80;99.90
22235;DHT22;11286;45.596;5.284;2022-10-31T06:10:06;16.70;99.90
22235;DHT22;11286;45.596;5.284;2022-10-31T06:12:33;16.50;99.90
22235;DHT22;11286;45.596;5.284;2022-10-31T06:15:07;16.50;99.90
22235;DHT22;11286;45.596;5.284;2022-10-31T06:17:36;16.50;99.90
22235;DHT22;11286;45.596;5.284;2022-10-31T06:20:03;16.50;99.90
22235;DHT22;11286;45.596;5.284;2022-10-31T06:22:29;16.50;99.90
22235;DHT22;11286;45.596;5.284;2022-10-31T06:24:54;16.20;99.90
22235;DHT22;11286;45.596;5.284;2022-10-31T06:27:20;16.20;99.90
22235;DHT22;11286;45.596;5.284;2022-10-31T06:29:46;16.30;99.90
22235;DHT22;11286;45.596;5.284;2022-10-31T06:32:12;16.20;99.90
22235;DHT22;11286;45.596;5.284;2022-10-31T06:34:39;16.20;99.90
22235;DHT22;11286;45.596;5.284;2022-10-31T06:37:09;16.30;99.90
22235;DHT22;11286;45.596;5.284;2022-10-31T06:39:35;16.30;99.90
22235;DHT22;11286;45.596;5.284;2022-10-31T06:42:01;16.30;99.90
22235;DHT22;11286;45.596;5.284;2022-10-31T06:44:27;16.30;99.90
22235;DHT22;11286;45.596;5.284;2022-10-31T06:46:52;16.40;99.90
22235;DHT22;11286;45.596;5.284;2022-10-31T06:49:18;16.40;99.90
22235;DHT22;11286;45.596;5.284;2022-10-31T06:51:47;16.50;99.90
22235;DHT22;11286;45.596;5.284;2022-10-31T06:54:13;16.50;99.90
22235;DHT22;11286;45.596;5.284;2022-10-31T06:56:38;16.60;99.90
22235;DHT22;11286;45.596;5.284;2022-10-31T06:59:04;16.70;99.90
22235;DHT22;11286;45.596;5.284;2022-10-31T07:01:30;16.80;99.90
22235;DHT22;11286;45.596;5.284;2022-10-31T07:03:55;16.80;99.90
22235;DHT22;11286;45.596;5.284;2022-10-31T07:06:21;16.80;99.90
22235;DHT22;11286;45.596;5.284;2022-10-31T07:08:46;16.70;99.90
22235;DHT22;11286;45.596;5.284;2022-10-31T07:11:12;16.90;99.90
22235;DHT22;11286;45.596;5.284;2022-10-31T07:13:38;17.10;99.90
22235;DHT22;11286;45.596;5.284;2022-10-31T07:16:04;17.30;99.90
22235;DHT22;11286;45.596;5.284;2022-10-31T07:18:32;17.50;99.90
22235;DHT22;11286;45.596;5.284;2022-10-31T07:20:58;17.60;99.90
22235;DHT22;11286;45.596;5.284;2022-10-31T07:23:24;17.80;99.90
22235;DHT22;11286;45.596;5.284;2022-10-31T07:25:58;18.20;99.90
22235;DHT22;11286;45.596;5.284;2022-10-31T07:28:24;18.20;99.90
22235;DHT22;11286;45.596;5.284;2022-10-31T07:30:52;18.20;99.90
22235;DHT22;11286;45.596;5.284;2022-10-31T07:33:18;18.20;99.90
22235;DHT22;11286;45.596;5.284;2022-10-31T07:35:43;18.30;99.90
22235;DHT22;11286;45.596;5.284;2022-10-31T07:38:10;18.40;99.90
22235;DHT22;11286;45.596;5.284;2022-10-31T07:40:36;18.50;99.90
22235;DHT22;11286;45.596;5.284;2022-10-31T07:43:02;18.50;99.90
22235;DHT22;11286;45.596;5.284;2022-10-31T07:45:28;18.50;99.90
22235;DHT22;11286;45.596;5.284;2022-10-31T07:47:54;18.80;99.90
22235;DHT22;11286;45.596;5.284;2022-10-31T07:50:22;19.30;99.90
22235;DHT22;11286;45.596;5.284;2022-10-31T07:52:48;19.40;99.90
22235;DHT22;11286;45.596;5.284;2022-10-31T07:55:22;20.60;99.90
22235;DHT22;11286;45.596;5.284;2022-10-31T07:57:58;21.40;99.90
22235;DHT22;11286;45.596;5.284;2022-10-31T08:00:24;21.50;99.90
22235;DHT22;11286;45.596;5.284;2022-10-31T08:03:01;20.10;99.90
22235;DHT22;11286;45.596;5.284;2022-10-31T08:05:27;19.50;99.90
22235;DHT22;11286;45.596;5.284;2022-10-31T08:07:53;19.10;99.90
22235;DHT22;11286;45.596;5.284;2022-10-31T08:10:20;19.10;99.90
22235;DHT22;11286;45.596;5.284;2022-10-31T08:12:46;19.10;99.90
22235;DHT22;11286;45.596;5.284;2022-10-31T08:15:12;18.90;99.90
22235;DHT22;11286;45.596;5.284;2022-10-31T08:17:38;18.60;99.90
22235;DHT22;11286;45.596;5.284;2022-10-31T08:20:05;18.80;99.90
22235;DHT22;11286;45.596;5.284;2022-10-31T08:22:31;19.20;99.90
22235;DHT22;11286;45.596;5.284;2022-10-31T08:24:56;19.00;99.90
22235;DHT22;11286;45.596;5.284;2022-10-31T08:27:22;18.80;99.90
22235;DHT22;11286;45.596;5.284;2022-10-31T08:29:48;18.60;99.90
22235;DHT22;11286;45.596;5.284;2022-10-31T08:32:13;18.70;99.90
22235;DHT22;11286;45.596;5.284;2022-10-31T08:34:39;18.50;99.90
22235;DHT22;11286;45.596;5.284;2022-10-31T08:37:05;18.60;99.90
22235;DHT22;11286;45.596;5.284;2022-10-31T08:39:30;18.60;99.90
22235;DHT22;11286;45.596;5.284;2022-10-31T08:41:56;18.70;99.90
22235;DHT22;11286;45.596;5.284;2022-10-31T08:44:21;18.90;99.90
22235;DHT22;11286;45.596;5.284;2022-10-31T08:46:47;19.20;99.90
22235;DHT22;11286;45.596;5.284;2022-10-31T08:49:12;19.30;99.90
22235;DHT22;11286;45.596;5.284;2022-10-31T08:51:38;19.80;99.90
22235;DHT22;11286;45.596;5.284;2022-10-31T08:54:04;20.40;99.90
22235;DHT22;11286;45.596;5.284;2022-10-31T08:56:29;21.20;99.90
22235;DHT22;11286;45.596;5.284;2022-10-31T08:58:55;20.90;99.90
22235;DHT22;11286;45.596;5.284;2022-10-31T09:01:21;20.30;99.90
22235;DHT22;11286;45.596;5.284;2022-10-31T09:03:46;21.10;99.90
22235;DHT22;11286;45.596;5.284;2022-10-31T09:06:12;20.60;99.90
22235;DHT22;11286;45.596;5.284;2022-10-31T09:08:38;21.40;99.90
22235;DHT22;11286;45.596;5.284;2022-10-31T09:11:04;22.70;99.90
22235;DHT22;11286;45.596;5.284;2022-10-31T09:13:31;22.00;99.90
22235;DHT22;11286;45.596;5.284;2022-10-31T09:15:57;22.10;99.90
22235;DHT22;11286;45.596;5.284;2022-10-31T09:18:26;21.70;99.90
22235;DHT22;11286;45.596;5.284;2022-10-31T09:20:57;20.50;99.90
22235;DHT22;11286;45.596;5.284;2022-10-31T09:23:23;20.30;99.90
22235;DHT22;11286;45.596;5.284;2022-10-31T09:25:51;20.70;99.90
22235;DHT22;11286;45.596;5.284;2022-10-31T09:28:22;20.50;99.90
22235;DHT22;11286;45.596;5.284;2022-10-31T09:30:50;20.60;99.90
22235;DHT22;11286;45.596;5.284;2022-10-31T09:33:16;21.20;99.90
22235;DHT22;11286;45.596;5.284;2022-10-31T09:35:42;20.60;99.90
22235;DHT22;11286;45.596;5.284;2022-10-31T09:38:16;20.80;99.90
22235;DHT22;11286;45.596;5.284;2022-10-31T09:40:43;20.50;99.90
22235;DHT22;11286;45.596;5.284;2022-10-31T09:46:09;20.60;99.90
22235;DHT22;11286;45.596;5.284;2022-10-31T09:51:30;20.90;99.90
22235;DHT22;11286;45.596;5.284;2022-10-31T09:56:34;22.40;99.90
22235;DHT22;11286;45.596;5.284;2022-10-31T09:59:03;23.40;99.90
22235;DHT22;11286;45.596;5.284;2022-10-31T10:02:03;23.50;99.90
22235;DHT22;11286;45.596;5.284;2022-10-31T10:04:32;26.60;99.90
22235;DHT22;11286;45.596;5.284;2022-10-31T10:07:17;27.80;99.90
22235;DHT22;11286;45.596;5.284;2022-10-31T10:09:44;26.20;99.90
22235;DHT22;11286;45.596;5.284;2022-10-31T10:12:19;28.70;99.90
22235;DHT22;11286;45.596;5.284;2022-10-31T10:18:38;28.10;99.90
22235;DHT22;11286;45.596;5.284;2022-10-31T10:27:16;27.80;99.90
22235;DHT22;11286;45.596;5.284;2022-10-31T10:32:25;32.20;99.90
22235;DHT22;11286;45.596;5.284;2022-10-31T10:34:57;33.10;99.90
22235;DHT22;11286;45.596;5.284;2022-10-31T10:37:40;32.60;99.90
22235;DHT22;11286;45.596;5.284;2022-10-31T10:40:15;29.50;99.90
22235;DHT22;11286;45.596;5.284;2022-10-31T10:45:37;26.40;99.90
22235;DHT22;11286;45.596;5.284;2022-10-31T10:50:57;26.60;99.90
22235;DHT22;11286;45.596;5.284;2022-10-31T10:56:20;29.40;99.90
22235;DHT22;11286;45.596;5.284;2022-10-31T10:58:47;27.70;99.90
22235;DHT22;11286;45.596;5.284;2022-10-31T11:01:14;28.30;99.90
22235;DHT22;11286;45.596;5.284;2022-10-31T11:03:41;28.30;99.90
22235;DHT22;11286;45.596;5.284;2022-10-31T11:06:20;27.50;99.90
22235;DHT22;11286;45.596;5.284;2022-10-31T11:08:51;28.50;99.90
22235;DHT22;11286;45.596;5.284;2022-10-31T11:13:44;27.90;99.90
22235;DHT22;11286;45.596;5.284;2022-10-31T11:16:28;27.10;99.90
22235;DHT22;11286;45.596;5.284;2022-10-31T11:19:26;27.40;99.90
22235;DHT22;11286;45.596;5.284;2022-10-31T11:21:52;30.00;99.90
22235;DHT22;11286;45.596;5.284;2022-10-31T11:24:25;29.10;99.90
22235;DHT22;11286;45.596;5.284;2022-10-31T11:27:14;28.80;99.90
22235;DHT22;11286;45.596;5.284;2022-10-31T11:29:40;30.50;99.90
22235;DHT22;11286;45.596;5.284;2022-10-31T11:32:23;31.60;99.90
22235;DHT22;11286;45.596;5.284;2022-10-31T11:34:59;30.80;99.90
22235;DHT22;11286;45.596;5.284;2022-10-31T11:37:32;29.50;99.90
22235;DHT22;11286;45.596;5.284;2022-10-31T11:40:03;28.70;99.90
22235;DHT22;11286;45.596;5.284;2022-10-31T11:42:37;28.70;99.90
22235;DHT22;11286;45.596;5.284;2022-10-31T11:45:15;30.90;99.90
22235;DHT22;11286;45.596;5.284;2022-10-31T11:47:52;31.10;99.90
22235;DHT22;11286;45.596;5.284;2022-10-31T11:50:21;31.00;99.90
22235;DHT22;11286;45.596;5.284;2022-10-31T11:52:47;29.40;99.90
22235;DHT22;11286;45.596;5.284;2022-10-31T11:55:37;29.00;99.90
22235;DHT22;11286;45.596;5.284;2022-10-31T11:58:01;28.90;99.90
22235;DHT22;11286;45.596;5.284;2022-10-31T12:00:47;25.90;99.90
22235;DHT22;11286;45.596;5.284;2022-10-31T12:03:26;24.50;99.90
22235;DHT22;11286;45.596;5.284;2022-10-31T12:06:18;25.90;99.90
22235;DHT22;11286;45.596;5.284;2022-10-31T12:08:45;28.80;99.90
22235;DHT22;11286;45.596;5.284;2022-10-31T12:14:08;27.10;99.90
22235;DHT22;11286;45.596;5.284;2022-10-31T12:17:16;26.40;99.90
22235;DHT22;11286;45.596;5.284;2022-10-31T12:20:03;25.60;99.90
22235;DHT22;11286;45.596;5.284;2022-10-31T12:30:24;26.40;99.90
22235;DHT22;11286;45.596;5.284;2022-10-31T12:44:05;29.40;99.90
22235;DHT22;11286;45.596;5.284;2022-10-31T12:49:30;26.80;99.90
22235;DHT22;11286;45.596;5.284;2022-10-31T12:57:32;26.90;99.90
22235;DHT22;11286;45.596;5.284;2022-10-31T13:02:56;27.40;99.90
22235;DHT22;11286;45.596;5.284;2022-10-31T13:05:37;27.90;99.90
22235;DHT22;11286;45.596;5.284;2022-10-31T13:08:28;26.50;99.90
22235;DHT22;11286;45.596;5.284;2022-10-31T13:11:08;27.20;99.90
22235;DHT22;11286;45.596;5.284;2022-10-31T13:14:06;26.80;99.90
22235;DHT22;11286;45.596;5.284;2022-10-31T13:16:36;26.30;99.90
22235;DHT22;11286;45.596;5.284;2022-10-31T13:19:41;28.20;99.90
22235;DHT22;11286;45.596;5.284;2022-10-31T13:22:21;29.70;99.90
22235;DHT22;11286;45.596;5.284;2022-10-31T13:27:42;29.50;99.90
22235;DHT22;11286;45.596;5.284;2022-10-31T13:30:18;30.80;99.90
22235;DHT22;11286;45.596;5.284;2022-10-31T13:38:10;29.90;99.90
22235;DHT22;11286;45.596;5.284;2022-10-31T13:40:55;29.20;99.90
22235;DHT22;11286;45.596;5.284;2022-10-31T13:45:55;28.10;99.90
22235;DHT22;11286;45.596;5.284;2022-10-31T13:48:40;28.00;99.90
22235;DHT22;11286;45.596;5.284;2022-10-31T13:51:09;27.90;99.90
22235;DHT22;11286;45.596;5.284;2022-10-31T13:53:38;27.60;99.90
22235;DHT22;11286;45.596;5.284;2022-10-31T13:56:25;27.30;99.90
22235;DHT22;11286;45.596;5.284;2022-10-31T13:59:04;25.80;99.90
22235;DHT22;11286;45.596;5.284;2022-10-31T14:01:32;26.20;99.90
22235;DHT22;11286;45.596;5.284;2022-10-31T14:04:07;26.10;99.90
22235;DHT22;11286;45.596;5.284;2022-10-31T14:06:44;25.70;99.90
22235;DHT22;11286;45.596;5.284;2022-10-31T14:09:22;24.50;99.90
22235;DHT22;11286;45.596;5.284;2022-10-31T14:11:49;24.40;99.90
22235;DHT22;11286;45.596;5.284;2022-10-31T14:14:15;24.10;99.90
22235;DHT22;11286;45.596;5.284;2022-10-31T14:16:44;24.50;99.90
22235;DHT22;11286;45.596;5.284;2022-10-31T14:19:17;24.20;99.90
22235;DHT22;11286;45.596;5.284;2022-10-31T14:21:45;24.20;99.90
22235;DHT22;11286;45.596;5.284;2022-10-31T14:27:03;24.10;99.90
22235;DHT22;11286;45.596;5.284;2022-10-31T14:29:33;24.00;99.90
22235;DHT22;11286;45.596;5.284;2022-10-31T14:34:53;24.00;99.90
22235;DHT22;11286;45.596;5.284;2022-10-31T14:37:37;23.60;99.90
22235;DHT22;11286;45.596;5.284;2022-10-31T14:48:24;23.60;99.90
22235;DHT22;11286;45.596;5.284;2022-10-31T14:51:00;23.70;99.90
22235;DHT22;11286;45.596;5.284;2022-10-31T14:53:45;23.80;99.90
22235;DHT22;11286;45.596;5.284;2022-10-31T14:56:13;23.90;99.90
22235;DHT22;11286;45.596;5.284;2022-10-31T14:58:46;23.90;99.90
22235;DHT22;11286;45.596;5.284;2022-10-31T15:01:28;24.10;99.90
22235;DHT22;11286;45.596;5.284;2022-10-31T15:04:19;24.30;99.90
22235;DHT22;11286;45.596;5.284;2022-10-31T15:06:50;23.90;99.90
22235;DHT22;11286;45.596;5.284;2022-10-31T15:09:34;23.90;99.90
22235;DHT22;11286;45.596;5.284;2022-10-31T15:12:01;24.70;99.90
22235;DHT22;11286;45.596;5.284;2022-10-31T15:14:39;24.80;99.90
22235;DHT22;11286;45.596;5.284;2022-10-31T15:17:05;24.30;99.90
22235;DHT22;11286;45.596;5.284;2022-10-31T15:19:32;24.60;99.90
22235;DHT22;11286;45.596;5.284;2022-10-31T15:22:00;24.50;99.90
22235;DHT22;11286;45.596;5.284;2022-10-31T15:24:32;24.10;99.90
22235;DHT22;11286;45.596;5.284;2022-10-31T15:26:59;23.80;99.90
22235;DHT22;11286;45.596;5.284;2022-10-31T15:29:26;23.70;99.90
22235;DHT22;11286;45.596;5.284;2022-10-31T15:31:56;24.10;99.90
22235;DHT22;11286;45.596;5.284;2022-10-31T15:34:27;23.70;99.90
22235;DHT22;11286;45.596;5.284;2022-10-31T15:36:55;23.60;99.90
22235;DHT22;11286;45.596;5.284;2022-10-31T15:39:21;23.60;99.90
22235;DHT22;11286;45.596;5.284;2022-10-31T15:44:29;23.80;99.90
22235;DHT22;11286;45.596;5.284;2022-10-31T15:47:03;23.80;99.90
22235;DHT22;11286;45.596;5.284;2022-10-31T15:49:36;23.60;99.90
22235;DHT22;11286;45.596;5.284;2022-10-31T15:52:21;23.60;99.90
22235;DHT22;11286;45.596;5.284;2022-10-31T15:54:53;23.40;99.90
22235;DHT22;11286;45.596;5.284;2022-10-31T15:57:24;23.40;99.90
22235;DHT22;11286;45.596;5.284;2022-10-31T15:59:52;23.10;99.90
22235;DHT22;11286;45.596;5.284;2022-10-31T16:02:21;23.00;99.90
22235;DHT22;11286;45.596;5.284;2022-10-31T16:04:53;22.90;99.90
22235;DHT22;11286;45.596;5.284;2022-10-31T16:07:19;22.70;99.90
22235;DHT22;11286;45.596;5.284;2022-10-31T16:10:04;22.60;99.90
22235;DHT22;11286;45.596;5.284;2022-10-31T16:12:36;22.50;99.90
22235;DHT22;11286;45.596;5.284;2022-10-31T16:15:03;22.40;99.90
22235;DHT22;11286;45.596;5.284;2022-10-31T16:17:30;22.40;99.90
22235;DHT22;11286;45.596;5.284;2022-10-31T16:20:01;22.10;99.90
22235;DHT22;11286;45.596;5.284;2022-10-31T16:22:30;22.00;99.90
22235;DHT22;11286;45.596;5.284;2022-10-31T16:27:27;21.90;99.90
22235;DHT22;11286;45.596;5.284;2022-10-31T16:29:55;21.90;99.90
22235;DHT22;11286;45.596;5.284;2022-10-31T16:32:28;21.80;99.90
22235;DHT22;11286;45.596;5.284;2022-10-31T16:37:39;21.60;99.90
22235;DHT22;11286;45.596;5.284;2022-10-31T16:40:05;21.50;99.90
22235;DHT22;11286;45.596;5.284;2022-10-31T16:42:32;21.40;99.90
22235;DHT22;11286;45.596;5.284;2022-10-31T16:44:58;21.30;99.90
22235;DHT22;11286;45.596;5.284;2022-10-31T16:47:24;21.40;99.90
22235;DHT22;11286;45.596;5.284;2022-10-31T16:49:50;21.40;99.90
22235;DHT22;11286;45.596;5.284;2022-10-31T16:52:16;21.40;99.90
22235;DHT22;11286;45.596;5.284;2022-10-31T16:54:42;21.30;99.90
22235;DHT22;11286;45.596;5.284;2022-10-31T16:57:13;21.20;99.90
22235;DHT22;11286;45.596;5.284;2022-10-31T16:59:39;21.10;99.90
22235;DHT22;11286;45.596;5.284;2022-10-31T17:02:14;21.20;99.90
22235;DHT22;11286;45.596;5.284;2022-10-31T17:04:40;21.10;99.90
22235;DHT22;11286;45.596;5.284;2022-10-31T17:07:05;21.00;99.90
22235;DHT22;11286;45.596;5.284;2022-10-31T17:09:31;20.90;99.90
22235;DHT22;11286;45.596;5.284;2022-10-31T17:11:57;20.50;99.90
22235;DHT22;11286;45.596;5.284;2022-10-31T17:14:22;20.70;99.90
22235;DHT22;11286;45.596;5.284;2022-10-31T17:16:48;20.80;99.90
22235;DHT22;11286;45.596;5.284;2022-10-31T17:19:14;20.70;99.90
22235;DHT22;11286;45.596;5.284;2022-10-31T17:21:39;20.80;99.90
22235;DHT22;11286;45.596;5.284;2022-10-31T17:24:06;20.60;99.90
22235;DHT22;11286;45.596;5.284;2022-10-31T17:26:31;20.60;99.90
22235;DHT22;11286;45.596;5.284;2022-10-31T17:28:57;20.60;99.90
22235;DHT22;11286;45.596;5.284;2022-10-31T17:31:31;20.60;99.90
22235;DHT22;11286;45.596;5.284;2022-10-31T17:33:58;20.60;99.90
22235;DHT22;11286;45.596;5.284;2022-10-31T17:36:24;20.50;99.90
22235;DHT22;11286;45.596;5.284;2022-10-31T17:38:50;20.50;99.90
22235;DHT22;11286;45.596;5.284;2022-10-31T17:41:15;20.50;99.90
22235;DHT22;11286;45.596;5.284;2022-10-31T17:43:41;20.40;99.90
22235;DHT22;11286;45.596;5.284;2022-10-31T17:46:07;20.40;99.90
22235;DHT22;11286;45.596;5.284;2022-10-31T17:48:34;20.40;99.90
22235;DHT22;11286;45.596;5.284;2022-10-31T17:51:01;20.30;99.90
22235;DHT22;11286;45.596;5.284;2022-10-31T17:53:28;20.40;99.90
22235;DHT22;11286;45.596;5.284;2022-10-31T17:55:59;20.40;99.90